Time;durP1;ratioP1;P1;durP2;ratioP2;P2;SDS_P1;SDS_P2;PMS_P1;PMS_P2;Temp;Humidity;BMP_temperature;BMP_pressure;BME280_temperature;BME280_humidity;BME280_pressure;Samples;Min_cycle;Max_cycle;Signal;HPM_P1;HPM_P2
2022/02/04 00:24:48;;;;;;;12.20;10.90;;;8.10;99.90;;;;;;5044053;28;20516;-92
2022/02/04 00:27:16;;;;;;;13.07;11.67;;;8.20;99.90;;;;;;5057141;28;20495;-92
2022/02/04 00:29:51;;;;;;;12.43;11.13;;;8.20;99.90;;;;;;5056609;28;20438;-91
2022/02/04 00:32:21;;;;;;;12.20;11.00;;;8.20;99.90;;;;;;5041468;28;20492;-94
2022/02/04 00:34:55;;;;;;;12.50;10.43;;;8.20;99.90;;;;;;5056595;28;20433;-89
2022/02/04 00:37:30;;;;;;;11.83;10.63;;;8.30;99.90;;;;;;5056250;28;20465;-93
2022/02/04 00:40:06;;;;;;;9.37;8.50;;;8.30;99.90;;;;;;5041249;28;20460;-93
2022/02/04 00:42:33;;;;;;;10.00;9.00;;;8.30;99.90;;;;;;5053128;28;20505;-92
2022/02/04 00:45:15;;;;;;;11.37;9.53;;;8.40;99.90;;;;;;5053104;28;20467;-93
2022/02/04 00:47:48;;;;;;;8.73;7.93;;;8.40;99.90;;;;;;5046788;28;20473;-92
2022/02/04 00:50:24;;;;;;;12.00;10.17;;;8.40;99.90;;;;;;5054767;28;20449;-92
2022/02/04 00:53:04;;;;;;;9.20;8.30;;;8.40;99.90;;;;;;5047840;28;20498;-92
2022/02/04 00:55:38;;;;;;;8.53;7.73;;;8.50;99.90;;;;;;5051008;28;20500;-93
2022/02/04 01:26:01;;;;;;;8.30;7.50;;;8.60;99.90;;;;;;5047537;28;20999;-94
2022/02/04 01:28:28;;;;;;;8.47;7.67;;;8.60;99.90;;;;;;5042205;28;20499;-93
2022/02/04 01:30:56;;;;;;;8.60;6.83;;;8.60;99.90;;;;;;5041726;28;21038;-93
2022/02/04 01:33:26;;;;;;;8.00;7.20;;;8.60;99.90;;;;;;5050831;28;20429;-93
2022/02/04 01:35:55;;;;;;;7.37;6.67;;;8.60;99.90;;;;;;5060707;28;20474;-90
2022/02/04 01:38:22;;;;;;;7.90;7.10;;;8.50;99.90;;;;;;5053208;28;20785;-93
2022/02/04 01:40:49;;;;;;;8.07;7.27;;;8.50;99.90;;;;;;5051460;28;20541;-90
2022/02/04 01:43:21;;;;;;;7.33;6.60;;;8.60;99.90;;;;;;5054407;28;20528;-91
2022/02/04 01:45:49;;;;;;;7.70;7.00;;;8.50;99.90;;;;;;5053525;28;20484;-92
2022/02/04 01:48:16;;;;;;;6.87;6.27;;;8.50;99.90;;;;;;5049219;28;20484;-94
2022/02/04 01:50:47;;;;;;;7.60;6.90;;;8.50;99.90;;;;;;5045183;28;20484;-94
2022/02/04 01:53:15;;;;;;;8.30;6.87;;;8.50;99.90;;;;;;5044591;28;20450;-92
2022/02/04 01:55:42;;;;;;;7.50;6.73;;;8.50;99.90;;;;;;5053401;28;20453;-94
2022/02/04 01:58:09;;;;;;;7.70;6.20;;;8.60;99.90;;;;;;5043072;28;20442;-93
2022/02/04 02:00:37;;;;;;;6.67;5.97;;;8.50;99.90;;;;;;5040742;28;20473;-94
2022/02/04 02:03:04;;;;;;;7.57;6.03;;;8.60;99.90;;;;;;5045044;28;20449;-93
2022/02/04 02:05:31;;;;;;;7.10;6.40;;;8.50;99.90;;;;;;5040479;28;20466;-92
2022/02/04 02:08:07;;;;;;;9.40;8.07;;;8.60;99.90;;;;;;5040339;28;20480;-94
2022/02/04 02:10:34;;;;;;;7.00;6.17;;;8.50;99.90;;;;;;5053146;28;20477;-93
2022/02/04 02:13:11;;;;;;;7.30;5.90;;;8.50;99.90;;;;;;5059297;28;20465;-91
2022/02/04 02:15:47;;;;;;;7.70;6.20;;;8.50;99.90;;;;;;5051042;28;20529;-92
2022/02/04 02:35:14;;;;;;;7.03;5.53;;;8.40;99.90;;;;;;5047851;28;20440;-93
2022/02/04 02:49:21;;;;;;;6.97;5.50;;;8.40;99.90;;;;;;5039350;28;20480;-91
2022/02/04 02:52:05;;;;;;;6.60;6.00;;;8.40;99.90;;;;;;5053122;28;20457;-93
2022/02/04 02:57:46;;;;;;;7.73;6.10;;;8.40;99.90;;;;;;5042935;28;20437;-92
2022/02/04 03:00:26;;;;;;;6.37;5.67;;;8.40;99.90;;;;;;5046018;28;20421;-92
2022/02/04 03:02:57;;;;;;;6.93;6.27;;;8.40;99.90;;;;;;5051152;28;20431;-91
2022/02/04 03:05:23;;;;;;;7.80;6.47;;;8.30;99.90;;;;;;5049655;28;20437;-91
2022/02/04 03:07:50;;;;;;;7.47;6.10;;;8.30;99.90;;;;;;5044552;28;20503;-93
2022/02/04 03:10:18;;;;;;;7.13;5.80;;;8.20;99.90;;;;;;5042749;28;20446;-93
2022/02/04 03:12:46;;;;;;;7.90;7.10;;;8.20;99.90;;;;;;5041451;28;20501;-93
2022/02/04 03:15:13;;;;;;;7.87;6.33;;;8.20;99.90;;;;;;5040579;28;20526;-92
2022/02/04 03:17:41;;;;;;;6.60;6.00;;;8.20;99.90;;;;;;5044693;28;20513;-93
2022/02/04 03:20:12;;;;;;;6.40;5.80;;;8.20;99.90;;;;;;5040110;28;20449;-94
2022/02/04 03:22:39;;;;;;;7.47;6.77;;;8.10;99.90;;;;;;5049586;28;20483;-91
2022/02/04 03:25:10;;;;;;;9.37;6.57;;;8.10;99.90;;;;;;5058890;28;20445;-90
2022/02/04 03:27:43;;;;;;;8.37;6.70;;;8.10;99.90;;;;;;5050754;28;20468;-92
2022/02/04 03:30:16;;;;;;;7.93;7.13;;;8.10;99.90;;;;;;5047295;28;20442;-91
2022/02/04 03:32:48;;;;;;;7.20;6.50;;;8.10;99.90;;;;;;5044526;28;20506;-94
2022/02/04 03:35:20;;;;;;;7.80;7.03;;;8.10;99.90;;;;;;5043048;28;20441;-90
2022/02/04 03:37:48;;;;;;;7.20;6.50;;;8.10;99.90;;;;;;5051038;28;20445;-93
2022/02/04 03:40:15;;;;;;;7.00;6.30;;;8.10;99.90;;;;;;5052842;28;20438;-92
2022/02/04 03:42:43;;;;;;;7.77;6.70;;;8.10;99.90;;;;;;5048764;28;20495;-92
2022/02/04 03:45:10;;;;;;;7.00;6.30;;;8.10;99.90;;;;;;5052878;28;20448;-92
2022/02/04 03:47:37;;;;;;;8.30;6.47;;;8.10;99.90;;;;;;5044405;28;20472;-94
2022/02/04 03:50:04;;;;;;;7.00;6.40;;;8.10;99.90;;;;;;5047055;28;20860;-92
2022/02/04 03:52:31;;;;;;;7.20;6.30;;;8.10;99.90;;;;;;5042450;28;20540;-93
2022/02/04 03:54:58;;;;;;;7.03;6.43;;;8.10;99.90;;;;;;5047028;28;20441;-91
2022/02/04 03:57:25;;;;;;;9.50;6.70;;;8.10;99.90;;;;;;5044067;28;20445;-94
2022/02/04 03:59:54;;;;;;;8.43;6.50;;;8.10;99.90;;;;;;5045610;28;20521;-93
2022/02/04 04:02:21;;;;;;;8.00;7.20;;;8.10;99.90;;;;;;5047212;28;20516;-94
2022/02/04 04:04:48;;;;;;;7.40;6.70;;;8.10;99.90;;;;;;5050591;28;20426;-91
2022/02/04 04:07:15;;;;;;;8.83;7.03;;;8.10;99.90;;;;;;5050509;28;20430;-91
2022/02/04 04:09:48;;;;;;;8.87;7.97;;;8.10;99.90;;;;;;5055979;28;20459;-93
2022/02/04 04:12:16;;;;;;;7.37;6.77;;;8.10;99.90;;;;;;5045945;28;20833;-94
2022/02/04 04:14:43;;;;;;;7.40;6.63;;;8.00;99.90;;;;;;5049537;28;20478;-92
2022/02/04 04:17:11;;;;;;;8.27;7.47;;;8.00;99.90;;;;;;5055547;28;20446;-90
2022/02/04 04:19:38;;;;;;;12.57;7.97;;;8.00;99.90;;;;;;5053681;28;20445;-92
2022/02/04 04:22:04;;;;;;;7.87;7.13;;;8.00;99.90;;;;;;5047103;28;20455;-91
2022/02/04 04:24:31;;;;;;;9.23;8.13;;;7.90;99.90;;;;;;5053817;28;20432;-90
2022/02/04 04:26:58;;;;;;;8.13;6.90;;;8.00;99.90;;;;;;5057349;28;20448;-90
2022/02/04 04:29:25;;;;;;;8.47;7.20;;;7.90;99.90;;;;;;5058068;28;20467;-90
2022/02/04 04:31:51;;;;;;;8.43;7.57;;;7.90;99.90;;;;;;5056969;28;20483;-91
2022/02/04 04:34:20;;;;;;;9.23;7.40;;;7.90;99.90;;;;;;5053069;28;20454;-91
2022/02/04 04:36:46;;;;;;;7.80;7.00;;;7.90;99.90;;;;;;5044083;28;20531;-92
2022/02/04 04:39:19;;;;;;;8.73;7.80;;;7.90;99.90;;;;;;5050612;28;20461;-92
2022/02/04 04:41:57;;;;;;;6.37;5.77;;;7.80;99.90;;;;;;5054972;28;20456;-93
2022/02/04 04:45:10;;;;;;;8.57;7.77;;;7.80;99.90;;;;;;5048821;28;20448;-93
2022/02/04 05:26:45;;;;;;;9.17;7.40;;;7.60;99.90;;;;;;5038248;28;20444;-93
2022/02/04 05:29:14;;;;;;;7.70;6.90;;;7.60;99.90;;;;;;5039571;28;20515;-93
2022/02/04 05:31:41;;;;;;;9.40;8.20;;;7.60;99.90;;;;;;5036864;28;20922;-93
2022/02/04 05:34:08;;;;;;;7.40;6.43;;;7.60;99.90;;;;;;5037926;28;20445;-93
2022/02/04 05:36:40;;;;;;;9.23;8.07;;;7.60;99.90;;;;;;5039608;28;20457;-91
2022/02/04 05:39:10;;;;;;;7.63;6.83;;;7.60;99.90;;;;;;5046864;28;20444;-91
2022/02/04 05:41:41;;;;;;;8.50;7.70;;;7.60;99.90;;;;;;5047225;28;20462;-93
2022/02/04 05:44:11;;;;;;;8.43;7.37;;;7.60;99.90;;;;;;5043643;28;20457;-93
2022/02/04 05:46:48;;;;;;;8.40;7.17;;;7.60;99.90;;;;;;5049695;28;20460;-93
2022/02/04 05:49:17;;;;;;;8.33;7.53;;;7.50;99.90;;;;;;5050464;28;20477;-91
2022/02/04 05:51:51;;;;;;;8.20;7.40;;;7.50;99.90;;;;;;5054562;28;20537;-93
2022/02/04 05:54:24;;;;;;;8.63;7.27;;;7.50;99.90;;;;;;5046476;28;20449;-93
2022/02/04 05:56:59;;;;;;;8.00;7.20;;;7.50;99.90;;;;;;5044881;28;20492;-94
2022/02/04 05:59:36;;;;;;;7.63;7.03;;;7.50;99.90;;;;;;5048019;28;20479;-93
2022/02/04 06:02:11;;;;;;;8.80;7.40;;;7.50;99.90;;;;;;5045455;28;20484;-91
2022/02/04 06:04:50;;;;;;;7.47;6.87;;;7.50;99.90;;;;;;5048797;28;20437;-92
2022/02/04 06:07:28;;;;;;;7.53;6.67;;;7.50;99.90;;;;;;5053040;28;20548;-89
2022/02/04 06:13:12;;;;;;;9.37;8.47;;;7.50;99.90;;;;;;5024062;28;20499;-92
2022/02/04 06:26:51;;;;;;;8.00;7.30;;;7.50;99.90;;;;;;5063084;28;20452;-91
2022/02/04 06:29:18;;;;;;;9.67;8.67;;;7.50;99.90;;;;;;5066153;28;20543;-91
2022/02/04 06:31:45;;;;;;;10.70;9.67;;;7.60;99.90;;;;;;5065232;28;20441;-92
2022/02/04 06:34:17;;;;;;;9.57;8.57;;;7.60;99.90;;;;;;5071911;28;20521;-90
2022/02/04 06:36:44;;;;;;;11.20;7.47;;;7.60;99.90;;;;;;5064360;28;20483;-92
2022/02/04 06:39:20;;;;;;;9.40;8.13;;;7.50;99.90;;;;;;5069610;28;20525;-90
2022/02/04 06:41:49;;;;;;;10.67;9.03;;;7.50;99.90;;;;;;5062934;28;20452;-91
2022/02/04 06:44:16;;;;;;;9.93;8.80;;;7.50;99.90;;;;;;5060026;28;20453;-91
2022/02/04 06:46:51;;;;;;;10.00;9.10;;;7.50;99.90;;;;;;5060614;28;21091;-91
2022/02/04 06:49:18;;;;;;;8.83;8.00;;;7.50;99.90;;;;;;5063627;28;20474;-89
2022/02/04 06:51:45;;;;;;;9.87;8.50;;;7.50;99.90;;;;;;5065961;28;20944;-91
2022/02/04 06:54:12;;;;;;;9.70;8.80;;;7.40;99.90;;;;;;5060033;28;20452;-91
2022/02/04 06:56:51;;;;;;;9.87;8.87;;;7.40;99.90;;;;;;5068525;28;20436;-89
2022/02/04 06:59:21;;;;;;;10.37;9.37;;;7.40;99.90;;;;;;5067061;28;20456;-90
2022/02/04 07:01:54;;;;;;;11.20;8.87;;;7.30;99.90;;;;;;5078794;28;20460;-89
2022/02/04 07:04:21;;;;;;;19.40;9.17;;;7.30;99.90;;;;;;5068663;28;20464;-91
2022/02/04 07:06:54;;;;;;;10.90;9.90;;;7.20;99.90;;;;;;5065164;28;20456;-91
2022/02/04 07:09:27;;;;;;;10.33;9.13;;;7.20;99.90;;;;;;5065210;28;20476;-90
2022/02/04 07:15:01;;;;;;;12.13;9.50;;;7.20;99.90;;;;;;5057019;28;20527;-91
2022/02/04 07:17:35;;;;;;;13.87;9.93;;;7.20;99.90;;;;;;5068222;28;20445;-90
2022/02/04 07:20:01;;;;;;;10.13;9.00;;;7.20;99.90;;;;;;5077051;28;20439;-90
2022/02/04 07:22:30;;;;;;;10.17;8.97;;;7.20;99.90;;;;;;5063638;28;20506;-90
2022/02/04 07:24:59;;;;;;;9.87;8.70;;;7.30;99.90;;;;;;5060976;28;20232;-91
2022/02/04 07:27:28;;;;;;;10.43;9.37;;;7.20;99.90;;;;;;5072572;28;20445;-91
2022/02/04 07:29:58;;;;;;;9.70;8.70;;;7.20;99.90;;;;;;5061225;28;20464;-91
2022/02/04 07:32:31;;;;;;;10.50;8.93;;;7.30;99.90;;;;;;5058674;28;20459;-91
2022/02/04 07:43:14;;;;;;;8.40;7.60;;;7.20;99.90;;;;;;5062832;28;20456;-88
2022/02/04 07:45:41;;;;;;;9.23;8.33;;;7.10;99.90;;;;;;5076339;28;20459;-90
2022/02/04 07:48:27;;;;;;;10.10;8.33;;;7.10;99.90;;;;;;5070067;28;20421;-90
2022/02/04 07:51:04;;;;;;;10.03;7.97;;;7.10;99.90;;;;;;5064846;28;20507;-91
2022/02/04 07:53:47;;;;;;;9.60;8.27;;;7.10;99.90;;;;;;5065436;28;20440;-91
2022/02/04 07:56:26;;;;;;;8.80;7.90;;;7.10;99.90;;;;;;5061146;28;20472;-90
2022/02/04 07:59:06;;;;;;;15.80;9.00;;;7.20;99.90;;;;;;5059723;28;20445;-90
2022/02/04 08:01:36;;;;;;;9.87;8.43;;;7.20;99.90;;;;;;5064041;28;20444;-89
2022/02/04 08:04:13;;;;;;;9.07;8.00;;;7.10;99.90;;;;;;5063773;28;20452;-91
2022/02/04 08:06:43;;;;;;;9.50;8.50;;;7.00;99.90;;;;;;5059703;28;20579;-90
2022/02/04 08:09:23;;;;;;;9.77;8.77;;;7.00;99.90;;;;;;5060461;28;20472;-90
2022/02/04 08:14:49;;;;;;;12.30;8.60;;;7.00;99.90;;;;;;5054827;28;20971;-90
2022/02/04 08:23:30;;;;;;;9.20;8.27;;;7.00;99.90;;;;;;5044971;28;20511;-90
2022/02/04 08:26:15;;;;;;;9.50;8.57;;;7.00;99.90;;;;;;5071083;28;20475;-88
2022/02/04 08:32:09;;;;;;;10.57;8.10;;;7.00;99.90;;;;;;5041260;28;20432;-89
2022/02/04 08:34:54;;;;;;;9.80;8.80;;;7.10;99.90;;;;;;5064266;28;20963;-90
2022/02/04 09:06:41;;;;;;;8.57;7.63;;;9.30;99.90;;;;;;5240542;22;20470;-92
2022/02/04 09:09:15;;;;;;;7.33;6.63;;;9.30;99.90;;;;;;5114639;28;20485;-89
2022/02/04 09:11:46;;;;;;;7.67;6.70;;;9.70;99.90;;;;;;5105269;28;20438;-89
2022/02/04 09:18:03;;;;;;;7.00;6.10;;;10.20;99.90;;;;;;5097910;28;20414;-91
2022/02/04 09:24:08;;;;;;;7.10;6.40;;;10.60;99.90;;;;;;5077130;28;20454;-91
2022/02/04 09:26:42;;;;;;;7.10;5.93;;;10.30;99.90;;;;;;5099263;28;20791;-91
2022/02/04 09:29:19;;;;;;;7.63;6.80;;;10.00;99.90;;;;;;5105188;28;20475;-90
2022/02/04 09:31:51;;;;;;;7.00;5.90;;;9.70;99.90;;;;;;5106583;28;20472;-91
2022/02/04 09:34:18;;;;;;;6.90;6.20;;;9.70;99.90;;;;;;5105155;28;20459;-80
2022/02/04 09:36:45;;;;;;;6.90;6.30;;;9.50;99.90;;;;;;5107451;28;20447;-79
2022/02/04 09:39:14;;;;;;;6.70;6.10;;;9.40;99.90;;;;;;5105105;28;20499;-80
2022/02/04 09:41:57;;;;;;;6.87;6.17;;;9.50;99.90;;;;;;5107538;28;20447;-92
2022/02/04 09:50:52;;;;;;;11.40;6.10;;;9.70;99.90;;;;;;5066677;28;20460;-91
2022/02/04 10:18:12;;;;;;;3.73;3.00;;;9.60;99.90;;;;;;4942670;28;20456;-92
2022/02/04 10:20:42;;;;;;;4.50;3.53;;;9.60;99.90;;;;;;4962832;28;20453;-91
2022/02/04 10:23:10;;;;;;;3.80;3.50;;;9.60;99.90;;;;;;5022281;28;20841;-92
2022/02/04 10:29:24;;;;;;;7.80;4.67;;;10.10;99.90;;;;;;5006793;28;20552;-91
2022/02/04 10:36:11;;;;;;;3.80;3.50;;;10.30;99.90;;;;;;5021484;28;20523;-92
2022/02/04 11:30:55;;;;;;;3.00;2.53;;;10.80;99.90;;;;;;5027477;28;20449;-92
2022/02/04 11:31:04;;;;;;;2.30;2.10;;;9.90;99.90;;;;;;5023127;28;20492;-93
2022/02/04 11:43:43;;;;;;;4.23;3.10;;;9.80;99.90;;;;;;5029170;28;20449;-92
2022/02/04 11:54:43;;;;;;;3.53;2.17;;;9.90;99.90;;;;;;5030798;28;20494;-92
2022/02/04 11:57:21;;;;;;;3.23;2.07;;;10.00;99.90;;;;;;5033579;28;20454;-93
2022/02/04 12:00:25;;;;;;;4.17;2.70;;;10.00;99.90;;;;;;5030132;28;20517;-93
2022/02/04 12:03:04;;;;;;;2.63;2.40;;;9.80;99.90;;;;;;5033705;28;20454;-91
2022/02/04 12:05:41;;;;;;;3.47;2.53;;;9.80;99.90;;;;;;5029674;28;20469;-93
2022/02/04 12:15:10;;;;;;;;;;;;;;;;;;;;;
2022/02/04 12:21:27;;;;;;;2.43;2.23;;;9.90;99.90;;;;;;5006563;28;20443;-92
2022/02/04 12:24:01;;;;;;;1.50;1.10;;;9.70;99.90;;;;;;5018462;28;20445;-91
2022/02/04 12:26:42;;;;;;;4.87;2.50;;;9.50;99.90;;;;;;5019721;28;21009;-91
2022/02/04 12:29:29;;;;;;;2.60;1.77;;;9.40;99.90;;;;;;5019003;28;20473;-92
2022/02/04 12:32:00;;;;;;;2.60;1.67;;;9.20;99.90;;;;;;5017537;28;20447;-92
2022/02/04 12:35:02;;;;;;;5.97;3.03;;;9.20;99.90;;;;;;5018044;28;20473;-92
2022/02/04 12:37:32;;;;;;;2.43;1.37;;;9.20;99.90;;;;;;4999645;28;20450;-91
2022/02/04 12:40:55;;;;;;;3.83;2.27;;;9.10;99.90;;;;;;5019234;28;20509;-92
2022/02/04 12:43:37;;;;;;;3.70;2.43;;;9.10;99.90;;;;;;5008575;28;20622;-91
2022/02/04 12:46:13;;;;;;;3.47;1.77;;;9.40;99.90;;;;;;5022762;28;20477;-90
2022/02/04 12:48:54;;;;;;;2.70;2.20;;;9.50;99.90;;;;;;5023266;28;20480;-92
2022/02/04 12:51:42;;;;;;;3.27;1.43;;;9.40;99.90;;;;;;5026598;28;20499;-93
2022/02/04 12:54:18;;;;;;;2.37;1.53;;;9.40;99.90;;;;;;5025527;28;20457;-93
2022/02/04 12:57:26;;;;;;;4.60;1.80;;;9.40;99.90;;;;;;5023388;28;20881;-91
2022/02/04 13:00:00;;;;;;;3.37;1.57;;;9.40;99.90;;;;;;5025851;28;20465;-92
2022/02/04 13:08:42;;;;;;;1.53;1.43;;;9.20;99.90;;;;;;5029002;28;20452;-93
2022/02/04 13:11:13;;;;;;;1.80;1.57;;;9.30;99.90;;;;;;5023430;28;21021;-92
2022/02/04 13:13:47;;;;;;;4.47;1.90;;;9.30;99.90;;;;;;5026622;28;20460;-93
2022/02/04 13:16:23;;;;;;;1.43;1.33;;;9.50;99.90;;;;;;5026672;28;20477;-92
2022/02/04 13:18:50;;;;;;;1.63;1.53;;;9.50;99.60;;;;;;5033395;28;20454;-92
2022/02/04 13:21:21;;;;;;;2.10;1.70;;;9.50;99.90;;;;;;5028335;28;20450;-93
2022/02/04 13:23:51;;;;;;;1.90;1.70;;;9.50;99.80;;;;;;5023273;28;20458;-93
2022/02/04 13:26:23;;;;;;;2.67;2.00;;;9.60;99.90;;;;;;5033206;28;20493;-93
2022/02/04 13:29:00;;;;;;;1.67;1.50;;;9.60;99.90;;;;;;5022233;28;20823;-93
2022/02/04 13:31:36;;;;;;;2.00;1.30;;;9.60;99.90;;;;;;5021004;28;20532;-93
2022/02/04 13:34:09;;;;;;;2.10;1.80;;;9.40;99.30;;;;;;5024134;28;20449;-93
2022/02/04 13:39:27;;;;;;;3.00;2.03;;;9.20;99.90;;;;;;5027508;28;20477;-94
2022/02/04 13:42:10;;;;;;;2.30;1.83;;;9.30;99.90;;;;;;5028576;28;20454;-93
2022/02/04 14:02:14;;;;;;;2.10;1.90;;;9.40;98.20;;;;;;5021501;28;20454;-92
2022/02/04 14:05:09;;;;;;;1.77;1.43;;;9.40;98.40;;;;;;5014806;28;20824;-91
2022/02/04 15:08:44;;;;;;;1.77;1.23;;;9.10;99.30;;;;;;5021751;28;20458;-92
2022/02/04 15:21:34;;;;;;;1.50;1.30;;;9.00;99.40;;;;;;5055997;28;20574;-92
2022/02/04 15:28:14;;;;;;;1.53;1.00;;;9.00;99.80;;;;;;5023131;28;20387;-93
2022/02/04 15:41:21;;;;;;;10.00;1.40;;;8.90;99.80;;;;;;4969138;28;20424;-92
2022/02/04 15:44:09;;;;;;;1.37;1.23;;;8.90;99.90;;;;;;4958410;29;20565;-92
2022/02/04 15:46:44;;;;;;;4.20;0.83;;;9.00;99.90;;;;;;4968010;28;20447;-93
2022/02/04 16:13:40;;;;;;;2.20;1.67;;;8.80;99.90;;;;;;5034797;28;20469;-83
2022/02/04 16:16:21;;;;;;;1.50;0.80;;;8.80;99.90;;;;;;5030864;28;20502;-82
2022/02/04 16:22:41;;;;;;;2.60;1.00;;;8.70;99.90;;;;;;5023723;28;20438;-91
2022/02/04 16:25:30;;;;;;;1.30;0.93;;;8.70;99.90;;;;;;5025286;28;20480;-90
2022/02/04 16:35:09;;;;;;;2.87;1.07;;;8.70;99.90;;;;;;5008595;28;20496;-90
2022/02/04 16:41:10;;;;;;;2.23;0.80;;;8.60;99.90;;;;;;5015754;28;21090;-90
2022/02/04 16:44:35;;;;;;;1.10;0.93;;;8.60;99.90;;;;;;5017009;28;20452;-89
2022/02/04 17:06:59;;;;;;;1.63;0.80;;;8.60;99.90;;;;;;5268806;23;20868;-91
2022/02/04 20:24:42;;;;;;;1.40;1.30;;;8.60;99.90;;;;;;4054996;22;20503;-90
2022/02/04 21:26:44;;;;;;;3.47;1.67;;;9.00;99.90;;;;;;3238404;22;20494;-87
2022/02/04 21:32:05;;;;;;;1.30;1.13;;;9.00;99.90;;;;;;5128165;22;20485;-92
2022/02/04 22:56:00;;;;;;;1.43;1.10;;;7.50;99.90;;;;;;5030871;28;20463;-92
